Dunswell, United Kingdom
Current Conditions -  °F | °C
As of 2:50 PM on Friday 19 Dec 2014 (Local Time) from EGXV Reporting Station
Few Clouds Few Clouds  
Wind Chill: 36°   Ceiling: Unl
Heat Index: 45°   Visibility: 6mi
Dew Point: 34°   Wind: 22mph
Humidity: 66%   Direction: 270°W
Pressure: 29.83"   Gusts: 36mph
Location:  53.8°N, 0.37°W
Report Text: EGXV 191450Z AUTO 27019G31KT 9999 FEW033/// 07/01 Q1010
Loading
Personal Weather Stations






























Interactive Weather Map New forecast layout! Learn more

10-Day Weather Forecast

Advertisements
Track Severe Weather on mobile